createdAt,value
2022-11-20T00:00:33.789Z,10.73
2022-11-20T00:03:01.912Z,10.30
2022-11-20T00:05:30.035Z,10.50
2022-11-20T00:07:58.138Z,10.50
2022-11-20T00:10:27.713Z,10.03
2022-11-20T00:12:55.843Z,10.23
2022-11-20T00:15:23.977Z,10.87
2022-11-20T00:17:52.151Z,10.30
2022-11-20T00:20:20.313Z,11.67
2022-11-20T00:22:48.602Z,10.43
2022-11-20T00:25:16.832Z,10.27
2022-11-20T00:27:46.388Z,10.17
2022-11-20T00:30:15.142Z,10.63
2022-11-20T00:32:43.542Z,10.53
2022-11-20T00:35:11.697Z,10.50
2022-11-20T00:37:39.840Z,10.50
2022-11-20T00:40:08.713Z,10.37
2022-11-20T00:42:36.880Z,10.83
2022-11-20T00:45:06.872Z,10.77
2022-11-20T00:47:34.982Z,10.07
2022-11-20T00:50:03.156Z,10.57
2022-11-20T00:52:31.341Z,11.63
2022-11-20T00:54:59.473Z,10.90
2022-11-20T00:57:27.563Z,10.33
2022-11-20T00:59:55.694Z,10.40
2022-11-20T01:02:25.182Z,10.67
2022-11-20T01:04:53.325Z,11.27
2022-11-20T01:07:21.467Z,11.43
2022-11-20T01:09:49.701Z,11.40
2022-11-20T01:12:17.791Z,10.17
2022-11-20T01:14:45.964Z,10.80
2022-11-20T01:17:14.110Z,11.33
2022-11-20T01:19:43.620Z,10.57
2022-11-20T01:22:11.764Z,10.40
2022-11-20T01:24:39.898Z,11.07
2022-11-20T01:27:08.096Z,10.93
2022-11-20T01:29:36.272Z,11.00
2022-11-20T01:32:04.408Z,10.50
2022-11-20T01:34:32.661Z,11.07
2022-11-20T01:37:02.156Z,10.97
2022-11-20T01:39:30.318Z,10.37
2022-11-20T01:42:16.289Z,11.27
2022-11-20T01:44:53.135Z,11.93
2022-11-20T01:47:24.338Z,10.97
2022-11-20T01:49:54.812Z,10.67
2022-11-20T01:52:25.766Z,10.83
2022-11-20T01:54:55.874Z,11.07
2022-11-20T01:57:25.394Z,10.50
2022-11-20T01:59:55.889Z,11.00
2022-11-20T02:02:24.179Z,10.30
2022-11-20T02:04:54.390Z,10.90
2022-11-20T02:07:24.268Z,10.40
2022-11-20T02:09:57.480Z,10.70
2022-11-20T02:12:44.839Z,10.60
2022-11-20T02:15:12.983Z,10.40
2022-11-20T02:17:41.220Z,10.40
2022-11-20T02:20:09.904Z,9.83
2022-11-20T02:22:41.161Z,10.03
2022-11-20T02:25:11.696Z,10.73
2022-11-20T02:27:39.842Z,10.33
2022-11-20T02:30:08.970Z,11.10
2022-11-20T02:32:38.388Z,10.63
2022-11-20T02:35:10.337Z,10.20
2022-11-20T02:37:39.820Z,10.13
2022-11-20T02:40:08.696Z,10.80
2022-11-20T02:42:38.607Z,10.70
2022-11-20T02:45:07.272Z,10.07
2022-11-20T02:47:35.486Z,10.97
2022-11-20T02:50:03.741Z,10.47
2022-11-20T02:52:32.645Z,11.23
2022-11-20T02:55:01.514Z,10.73
2022-11-20T02:57:30.854Z,11.37
2022-11-20T03:00:00.321Z,10.37
2022-11-20T03:02:28.494Z,10.70
2022-11-20T03:04:56.622Z,10.40
2022-11-20T03:07:24.977Z,11.03
2022-11-20T03:09:53.156Z,10.73
2022-11-20T03:12:21.299Z,10.67
2022-11-20T03:14:53.000Z,10.77
2022-11-20T03:17:22.759Z,10.87
2022-11-20T03:19:50.890Z,11.00
2022-11-20T03:22:18.974Z,10.83
2022-11-20T03:24:47.416Z,10.93
2022-11-20T03:27:15.549Z,10.63
2022-11-20T03:29:43.655Z,10.77
2022-11-20T03:32:11.743Z,10.90
2022-11-20T03:34:41.221Z,11.00
2022-11-20T03:37:09.383Z,9.97
2022-11-20T03:39:37.504Z,11.33
2022-11-20T03:42:25.703Z,10.80
2022-11-20T03:44:53.819Z,11.00
2022-11-20T03:47:22.007Z,11.13
2022-11-20T03:49:51.462Z,10.93
2022-11-20T03:52:19.565Z,11.97
2022-11-20T03:54:47.678Z,11.17
2022-11-20T03:57:15.901Z,11.10
2022-11-20T03:59:44.048Z,10.97
2022-11-20T04:02:12.281Z,11.03
2022-11-20T04:04:40.484Z,11.67
2022-11-20T04:07:10.056Z,11.20
2022-11-20T04:09:38.257Z,11.80
2022-11-20T04:12:06.746Z,11.63
2022-11-20T04:14:34.921Z,10.67
2022-11-20T04:17:03.066Z,11.07
2022-11-20T04:19:31.167Z,11.17
2022-11-20T04:21:59.279Z,11.00
2022-11-20T04:24:28.800Z,11.20
2022-11-20T04:26:56.917Z,10.23
2022-11-20T04:29:25.061Z,10.80
2022-11-20T04:31:53.188Z,11.37
2022-11-20T04:34:21.362Z,11.40
2022-11-20T04:36:49.487Z,11.03
2022-11-20T04:39:17.939Z,11.27
2022-11-20T04:41:47.442Z,11.27
2022-11-20T04:44:15.583Z,11.43
2022-11-20T04:46:44.362Z,11.33
2022-11-20T04:49:13.435Z,11.60
2022-11-20T04:51:41.603Z,11.47
2022-11-20T04:54:09.751Z,11.70
2022-11-20T04:56:37.841Z,10.60
2022-11-20T04:59:07.345Z,11.47
2022-11-20T05:01:35.698Z,11.70
2022-11-20T05:04:03.857Z,11.33
2022-11-20T05:06:31.998Z,10.47
2022-11-20T05:09:00.387Z,11.00
2022-11-20T05:11:29.997Z,11.63
2022-11-20T05:13:58.141Z,10.83
2022-11-20T05:16:27.949Z,11.20
2022-11-20T05:18:56.585Z,11.17
2022-11-20T05:21:24.829Z,10.97
2022-11-20T05:23:52.920Z,10.73
2022-11-20T05:26:22.546Z,11.43
2022-11-20T05:28:51.141Z,11.27
2022-11-20T05:31:26.248Z,11.23
2022-11-20T05:33:56.981Z,11.50
2022-11-20T05:36:25.160Z,10.90
2022-11-20T05:38:58.052Z,11.10
2022-11-20T05:41:28.369Z,11.73
2022-11-20T05:43:56.540Z,11.63
2022-11-20T05:46:28.805Z,10.40
2022-11-20T05:48:59.422Z,12.20
2022-11-20T05:51:27.911Z,11.33
2022-11-20T05:53:56.069Z,11.73
2022-11-20T05:56:24.684Z,12.03
2022-11-20T05:58:52.927Z,11.27
2022-11-20T06:01:22.604Z,11.23
2022-11-20T06:03:51.665Z,11.87
2022-11-20T06:06:21.691Z,11.23
2022-11-20T06:08:50.083Z,12.00
2022-11-20T06:11:18.625Z,11.40
2022-11-20T06:13:47.376Z,11.37
2022-11-20T06:16:16.495Z,11.93
2022-11-20T06:18:44.630Z,11.70
2022-11-20T06:21:14.005Z,11.93
2022-11-20T06:23:43.947Z,11.90
2022-11-20T06:26:15.434Z,12.23
2022-11-20T06:28:43.585Z,11.83
2022-11-20T06:31:13.117Z,11.87
2022-11-20T06:33:41.214Z,11.87
2022-11-20T06:36:11.061Z,11.77
2022-11-20T06:38:40.722Z,12.53
2022-11-20T06:41:13.102Z,12.00
2022-11-20T06:43:41.271Z,12.07
2022-11-20T06:46:09.437Z,12.63
2022-11-20T06:48:37.618Z,12.20
2022-11-20T06:51:06.155Z,12.23
2022-11-20T06:53:34.373Z,12.30
2022-11-20T06:56:02.556Z,12.53
2022-11-20T06:58:33.145Z,11.50
2022-11-20T07:01:01.816Z,12.07
2022-11-20T07:03:30.051Z,12.03
2022-11-20T07:05:58.276Z,12.70
2022-11-20T07:08:26.789Z,12.20
2022-11-20T07:10:55.278Z,11.97
2022-11-20T07:13:23.426Z,11.30
2022-11-20T07:15:52.887Z,12.27
2022-11-20T07:18:21.015Z,12.63
2022-11-20T07:20:49.329Z,12.23
2022-11-20T07:23:17.437Z,12.23
2022-11-20T07:25:45.548Z,12.50
2022-11-20T07:28:14.707Z,12.13
2022-11-20T07:30:42.943Z,12.47
2022-11-20T07:33:12.416Z,13.07
2022-11-20T07:35:40.575Z,12.67
2022-11-20T07:38:09.001Z,13.07
2022-11-20T07:40:37.171Z,12.67
2022-11-20T07:43:05.343Z,13.20
2022-11-20T07:45:33.533Z,12.97
2022-11-20T07:48:01.676Z,12.70
2022-11-20T07:50:31.176Z,13.50
2022-11-20T07:53:03.585Z,12.17
2022-11-20T07:55:31.754Z,12.77
2022-11-20T07:58:00.091Z,13.20
2022-11-20T08:00:28.767Z,13.60
2022-11-20T08:02:56.948Z,13.00
2022-11-20T08:05:25.219Z,13.13
2022-11-20T08:07:54.718Z,13.03
2022-11-20T08:10:22.830Z,12.53
2022-11-20T08:13:09.165Z,12.93
2022-11-20T08:15:37.633Z,12.80
2022-11-20T08:18:36.206Z,13.23
2022-11-20T08:20:54.809Z,13.93
2022-11-20T08:23:25.659Z,13.63
2022-11-20T08:25:53.817Z,13.90
2022-11-20T08:28:22.668Z,13.53
2022-11-20T08:30:51.305Z,14.10
2022-11-20T08:33:19.774Z,14.03
2022-11-20T08:35:47.952Z,13.00
2022-11-20T08:38:16.199Z,14.10
2022-11-20T08:41:06.167Z,14.70
2022-11-20T08:43:35.648Z,13.37
2022-11-20T08:46:03.782Z,14.17
2022-11-20T08:48:31.930Z,15.07
2022-11-20T08:51:00.941Z,15.30
2022-11-20T08:53:29.087Z,14.13
2022-11-20T08:55:59.276Z,14.97
2022-11-20T08:58:27.703Z,15.17
2022-11-20T09:00:56.115Z,15.27
2022-11-20T09:03:28.584Z,14.10
2022-11-20T09:06:01.136Z,14.53
2022-11-20T09:08:29.343Z,14.47
2022-11-20T09:10:59.692Z,15.10
2022-11-20T09:13:28.495Z,15.60
2022-11-20T09:15:57.178Z,15.17
2022-11-20T09:18:25.389Z,15.50
2022-11-20T09:20:53.620Z,15.07
2022-11-20T09:23:21.759Z,16.03
2022-11-20T09:25:49.883Z,15.73
2022-11-20T09:28:19.489Z,15.20
2022-11-20T09:30:47.682Z,16.07
2022-11-20T09:33:15.779Z,16.37
2022-11-20T09:35:44.447Z,16.30
2022-11-20T09:38:12.940Z,17.00
2022-11-20T09:40:42.371Z,17.30
2022-11-20T09:43:14.251Z,16.97
2022-11-20T09:45:50.572Z,16.80
2022-11-20T09:48:23.506Z,16.87
2022-11-20T09:50:55.273Z,16.67
2022-11-20T09:53:27.438Z,17.07
2022-11-20T09:55:55.717Z,16.73
2022-11-20T09:58:30.309Z,16.90
2022-11-20T10:01:11.864Z,17.77
2022-11-20T10:03:42.817Z,18.10
2022-11-20T10:06:14.946Z,17.93
2022-11-20T10:08:44.580Z,18.30
2022-11-20T10:11:16.219Z,20.00
2022-11-20T10:13:49.490Z,19.90
2022-11-20T10:16:25.481Z,17.83
2022-11-20T10:19:01.447Z,18.70
2022-11-20T10:21:33.912Z,17.93
2022-11-20T10:24:08.459Z,19.43
2022-11-20T10:26:41.841Z,19.50
2022-11-20T10:29:13.308Z,19.37
2022-11-20T10:31:44.126Z,23.30
2022-11-20T10:34:22.650Z,19.00
2022-11-20T10:36:53.781Z,18.80
2022-11-20T10:39:25.468Z,18.97
2022-11-20T10:41:54.681Z,18.90
2022-11-20T10:44:37.892Z,18.97
2022-11-20T10:47:08.157Z,18.80
2022-11-20T10:49:36.683Z,19.10
2022-11-20T10:52:10.717Z,18.83
2022-11-20T10:54:42.697Z,19.13
2022-11-20T10:57:18.120Z,19.67
2022-11-20T10:59:55.165Z,19.23
2022-11-20T11:02:25.357Z,18.97
2022-11-20T11:04:54.424Z,20.00
2022-11-20T11:07:24.341Z,19.07
2022-11-20T11:09:53.664Z,19.67
2022-11-20T11:12:22.526Z,19.27
2022-11-20T11:14:51.724Z,19.27
2022-11-20T11:17:27.842Z,20.00
2022-11-20T11:20:07.063Z,19.67
2022-11-20T11:22:35.776Z,20.80
2022-11-20T11:25:03.945Z,21.30
2022-11-20T11:27:32.109Z,21.70
2022-11-20T11:30:15.090Z,22.23
2022-11-20T11:32:44.725Z,21.83
2022-11-20T11:35:23.551Z,21.27
2022-11-20T11:37:52.017Z,21.87
2022-11-20T11:40:24.979Z,20.93
2022-11-20T11:42:56.947Z,22.53
2022-11-20T11:45:24.179Z,21.57
2022-11-20T11:47:54.872Z,22.03
2022-11-20T11:50:24.149Z,21.33
2022-11-20T11:52:59.497Z,21.17
2022-11-20T11:55:33.553Z,20.90
2022-11-20T11:58:07.196Z,20.73
2022-11-20T12:00:37.295Z,20.30
2022-11-20T12:03:11.861Z,21.57
2022-11-20T12:05:44.036Z,21.30
2022-11-20T12:08:17.119Z,20.87
2022-11-20T12:10:48.394Z,22.47
2022-11-20T12:13:31.448Z,23.23
2022-11-20T12:15:59.592Z,23.80
2022-11-20T12:18:29.887Z,23.57
2022-11-20T12:21:04.875Z,22.87
2022-11-20T12:23:39.785Z,23.83
2022-11-20T12:26:11.196Z,23.63
2022-11-20T12:28:43.087Z,23.57
2022-11-20T12:31:17.800Z,24.07
2022-11-20T12:33:58.325Z,23.30
2022-11-20T12:36:30.840Z,23.37
2022-11-20T12:39:20.053Z,23.73
2022-11-20T12:42:21.260Z,23.83
2022-11-20T12:45:12.094Z,23.77
2022-11-20T12:47:55.154Z,23.20
2022-11-20T12:50:32.575Z,23.97
2022-11-20T12:53:07.196Z,23.80
2022-11-20T12:55:39.314Z,22.97
2022-11-20T12:58:11.360Z,24.30
2022-11-20T13:00:40.483Z,24.80
2022-11-20T13:03:29.654Z,23.87
2022-11-20T13:06:02.334Z,23.43
2022-11-20T13:08:32.287Z,24.20
2022-11-20T13:11:03.718Z,23.37
2022-11-20T13:13:36.582Z,23.80
2022-11-20T13:16:08.329Z,25.23
2022-11-20T13:18:39.212Z,23.97
2022-11-20T13:21:17.373Z,23.70
2022-11-20T13:23:45.593Z,23.37
2022-11-20T13:26:18.298Z,24.70
2022-11-20T13:28:47.879Z,24.17
2022-11-20T13:31:30.136Z,25.30
2022-11-20T13:33:58.687Z,24.03
2022-11-20T13:36:29.244Z,24.10
2022-11-20T13:38:58.158Z,23.53
2022-11-20T13:41:32.114Z,24.50
2022-11-20T13:44:06.444Z,32.53
2022-11-20T13:46:42.002Z,27.57
2022-11-20T13:49:11.146Z,27.53
2022-11-20T13:51:43.764Z,26.30
2022-11-20T13:54:40.533Z,26.57
2022-11-20T13:57:14.654Z,25.23
2022-11-20T13:59:46.678Z,25.80
2022-11-20T14:02:16.004Z,25.33
2022-11-20T14:04:46.073Z,25.57
2022-11-20T14:07:15.731Z,24.90
2022-11-20T14:09:52.555Z,25.03
2022-11-20T14:12:21.545Z,25.93
2022-11-20T14:14:51.238Z,26.70
2022-11-20T14:17:20.825Z,24.63
2022-11-20T14:19:49.721Z,26.07
2022-11-20T14:22:21.601Z,26.97
2022-11-20T14:24:50.053Z,25.27
2022-11-20T14:27:20.464Z,25.07
2022-11-20T14:29:49.394Z,25.57
2022-11-20T14:32:18.656Z,26.07
2022-11-20T14:34:48.033Z,25.47
2022-11-20T14:37:19.882Z,25.73
2022-11-20T14:39:53.699Z,25.63
2022-11-20T14:42:22.728Z,24.77
2022-11-20T14:44:51.398Z,24.20
2022-11-20T14:47:22.090Z,23.43
2022-11-20T14:49:50.797Z,24.30
2022-11-20T14:52:19.777Z,24.53
2022-11-20T14:54:48.682Z,23.90
2022-11-20T14:57:25.720Z,24.63
2022-11-20T14:59:54.079Z,23.17
2022-11-20T15:02:22.350Z,23.80
2022-11-20T15:04:50.859Z,24.43
2022-11-20T15:07:29.559Z,24.10
2022-11-20T15:10:04.621Z,23.80
2022-11-20T15:12:34.408Z,24.13
2022-11-20T15:15:03.546Z,25.07
2022-11-20T15:17:32.439Z,25.67
2022-11-20T15:20:01.536Z,24.90
2022-11-20T15:22:29.704Z,22.93
2022-11-20T15:24:57.853Z,24.17
2022-11-20T15:27:26.037Z,24.37
2022-11-20T15:29:55.994Z,23.57
2022-11-20T15:32:24.196Z,23.10
2022-11-20T15:34:52.389Z,22.60
2022-11-20T15:37:20.513Z,23.07
2022-11-20T15:39:48.648Z,24.37
2022-11-20T15:42:16.781Z,24.33
2022-11-20T15:44:44.914Z,24.73
2022-11-20T15:47:14.439Z,24.53
2022-11-20T15:49:42.582Z,23.27
2022-11-20T15:52:11.778Z,22.43
2022-11-20T15:54:39.906Z,22.73
2022-11-20T15:57:08.173Z,26.83
2022-11-20T15:59:37.941Z,27.20
2022-11-20T16:02:08.060Z,28.33
2022-11-20T16:04:37.535Z,27.73
2022-11-20T16:07:05.753Z,27.17
2022-11-20T16:09:33.991Z,26.90
2022-11-20T16:12:02.177Z,26.33
2022-11-20T16:14:48.221Z,25.47
2022-11-20T16:17:16.376Z,22.30
2022-11-20T16:19:46.128Z,21.60
2022-11-20T16:22:14.229Z,21.60
2022-11-20T16:24:42.364Z,22.80
2022-11-20T16:27:11.463Z,22.90
2022-11-20T16:29:39.604Z,22.10
2022-11-20T16:32:07.766Z,21.33
2022-11-20T16:34:35.927Z,22.33
2022-11-20T16:37:05.457Z,21.87
2022-11-20T16:39:33.654Z,20.43
2022-11-20T16:42:05.607Z,20.97
2022-11-20T16:44:34.824Z,21.73
2022-11-20T16:47:02.923Z,22.27
2022-11-20T16:49:31.094Z,22.70
2022-11-20T16:51:59.239Z,22.53
2022-11-20T16:54:28.756Z,20.93
2022-11-20T16:56:56.913Z,20.97
2022-11-20T16:59:25.067Z,20.23
2022-11-20T17:01:53.232Z,21.93
2022-11-20T17:04:21.791Z,21.23
2022-11-20T17:06:50.167Z,20.97
2022-11-20T17:09:18.317Z,21.13
2022-11-20T17:11:47.774Z,20.30
2022-11-20T17:14:15.937Z,22.10
2022-11-20T17:16:44.159Z,21.57
2022-11-20T17:19:12.435Z,21.60
2022-11-20T17:21:40.613Z,21.17
2022-11-20T17:24:09.655Z,21.63
2022-11-20T17:26:38.299Z,21.00
2022-11-20T17:29:10.017Z,21.40
2022-11-20T17:31:38.717Z,20.90
2022-11-20T17:34:07.079Z,22.27
2022-11-20T17:36:35.384Z,22.30
2022-11-20T17:39:03.557Z,21.30
2022-11-20T17:41:31.852Z,20.87
2022-11-20T17:44:02.117Z,21.07
2022-11-20T17:46:32.798Z,22.63
2022-11-20T17:49:00.935Z,21.13
2022-11-20T17:51:29.960Z,21.57
2022-11-20T17:53:58.899Z,21.50
2022-11-20T17:56:44.490Z,20.70
2022-11-20T17:59:13.597Z,23.17
2022-11-20T18:01:43.945Z,20.80
2022-11-20T18:04:12.486Z,22.47
2022-11-20T18:06:40.718Z,21.60
2022-11-20T18:09:08.998Z,22.17
2022-11-20T18:11:39.144Z,22.00
2022-11-20T18:14:26.182Z,20.27
2022-11-20T18:16:56.952Z,20.60
2022-11-20T18:19:31.294Z,21.97
2022-11-20T18:22:01.517Z,21.73
2022-11-20T18:24:29.707Z,23.43
2022-11-20T18:26:58.144Z,26.03
2022-11-20T18:29:26.641Z,23.80
2022-11-20T18:31:56.324Z,23.00
2022-11-20T18:34:24.668Z,21.43
2022-11-20T18:36:53.030Z,23.70
2022-11-20T18:39:21.744Z,23.83
2022-11-20T18:42:07.646Z,24.53
2022-11-20T18:44:54.914Z,24.70
2022-11-20T18:47:25.461Z,24.97
2022-11-20T18:49:54.333Z,24.53
2022-11-20T18:52:23.639Z,23.00
2022-11-20T18:54:52.113Z,22.53
2022-11-20T18:57:20.917Z,27.57
2022-11-20T18:59:49.296Z,26.80
2022-11-20T19:02:18.363Z,23.60
2022-11-20T19:04:47.960Z,22.87
2022-11-20T19:07:16.320Z,22.77
2022-11-20T19:09:45.209Z,22.87
2022-11-20T19:12:14.139Z,23.50
2022-11-20T19:14:42.361Z,25.50
2022-11-20T19:17:12.781Z,24.50
2022-11-20T19:19:41.060Z,26.57
2022-11-20T19:22:10.514Z,24.23
2022-11-20T19:24:38.669Z,24.47
2022-11-20T19:27:06.771Z,23.57
2022-11-20T19:29:35.018Z,23.10
2022-11-20T19:32:04.399Z,23.37
2022-11-20T19:34:33.329Z,21.93
2022-11-20T19:37:02.101Z,23.33
2022-11-20T19:39:31.578Z,23.30
2022-11-20T19:41:59.754Z,22.33
2022-11-20T19:44:27.930Z,24.50
2022-11-20T19:46:57.190Z,23.93
2022-11-20T19:49:25.883Z,25.20
2022-11-20T19:51:54.217Z,24.97
2022-11-20T19:54:22.414Z,25.00
2022-11-20T19:56:51.956Z,23.70
2022-11-20T19:59:20.083Z,25.37
2022-11-20T20:01:48.236Z,25.10
2022-11-20T20:04:16.459Z,25.80
2022-11-20T20:06:44.586Z,24.97
2022-11-20T20:09:13.706Z,27.90
2022-11-20T20:11:42.149Z,26.97
2022-11-20T20:14:13.619Z,23.00
2022-11-20T20:16:42.166Z,21.33
2022-11-20T20:19:14.111Z,21.60
2022-11-20T20:21:42.508Z,8.57
2022-11-20T20:24:11.311Z,6.07
2022-11-20T20:26:39.584Z,4.80
2022-11-20T20:29:07.769Z,4.30
2022-11-20T20:31:37.501Z,3.93
2022-11-20T20:34:05.953Z,3.80
2022-11-20T20:36:34.313Z,3.30
2022-11-20T20:39:03.193Z,3.13
2022-11-20T20:41:31.377Z,3.23
2022-11-20T20:44:17.117Z,3.63
2022-11-20T20:46:46.601Z,3.60
2022-11-20T20:49:14.823Z,2.63
2022-11-20T20:51:43.040Z,2.83
2022-11-20T20:54:11.212Z,3.67
2022-11-20T20:56:39.414Z,3.33
2022-11-20T20:59:07.619Z,2.73
2022-11-20T21:01:36.031Z,3.77
2022-11-20T21:04:05.524Z,2.63
2022-11-20T21:06:33.700Z,3.03
2022-11-20T21:09:01.862Z,3.23
2022-11-20T21:11:29.987Z,3.20
2022-11-20T21:13:58.114Z,3.13
2022-11-20T21:16:26.449Z,3.53
2022-11-20T21:18:54.622Z,3.13
2022-11-20T21:21:41.690Z,3.03
2022-11-20T21:24:09.818Z,2.53
2022-11-20T21:26:37.944Z,3.10
2022-11-20T21:29:06.122Z,3.20
2022-11-20T21:31:34.261Z,3.57
2022-11-20T21:34:02.414Z,3.43
2022-11-20T21:36:32.990Z,3.23
2022-11-20T21:39:10.114Z,3.13
2022-11-20T21:41:38.679Z,2.73
2022-11-20T21:46:55.929Z,2.40
2022-11-20T21:49:24.220Z,2.20
2022-11-20T21:51:54.285Z,2.00
2022-11-20T21:54:22.770Z,2.10
2022-11-20T21:56:51.074Z,1.97
2022-11-20T21:59:19.240Z,2.40
2022-11-20T22:01:47.408Z,2.50
2022-11-20T22:04:16.349Z,2.53
2022-11-20T22:06:44.533Z,2.67
2022-11-20T22:09:15.210Z,2.17
2022-11-20T22:11:43.347Z,1.83
2022-11-20T22:14:23.946Z,2.20
2022-11-20T22:16:53.076Z,2.27
2022-11-20T22:19:22.283Z,2.47
2022-11-20T22:21:51.514Z,2.27
2022-11-20T22:24:21.966Z,2.33
2022-11-20T22:26:50.726Z,2.70
2022-11-20T22:29:20.720Z,2.27
2022-11-20T22:31:49.203Z,2.77
2022-11-20T22:34:17.405Z,2.50
2022-11-20T22:36:45.643Z,2.00
2022-11-20T22:39:13.788Z,2.50
2022-11-20T22:41:43.254Z,2.17
2022-11-20T22:44:15.532Z,2.30
2022-11-20T22:46:43.633Z,1.80
2022-11-20T22:49:11.723Z,2.10
2022-11-20T22:51:40.865Z,2.97
2022-11-20T22:54:09.776Z,5.53
2022-11-20T22:56:37.912Z,6.63
2022-11-20T22:59:07.469Z,7.70
2022-11-20T23:01:36.648Z,8.23
2022-11-20T23:04:06.025Z,8.37
2022-11-20T23:06:35.018Z,9.00
2022-11-20T23:09:03.625Z,9.93
2022-11-20T23:11:32.505Z,10.37
2022-11-20T23:14:01.538Z,11.30
2022-11-20T23:16:32.487Z,11.70
2022-11-20T23:19:01.548Z,12.77
2022-11-20T23:21:29.691Z,13.73
2022-11-20T23:23:58.538Z,14.00
2022-11-20T23:26:28.186Z,14.23
2022-11-20T23:28:57.608Z,14.97
2022-11-20T23:31:26.093Z,14.93
2022-11-20T23:33:55.622Z,15.03
2022-11-20T23:36:23.780Z,15.03
2022-11-20T23:38:51.936Z,15.10
2022-11-20T23:41:20.279Z,15.77
2022-11-20T23:43:48.421Z,15.50
2022-11-20T23:46:17.151Z,15.40
2022-11-20T23:48:45.835Z,15.63
2022-11-20T23:51:15.487Z,15.40
2022-11-20T23:53:43.845Z,16.70
2022-11-20T23:56:14.284Z,16.50
2022-11-20T23:58:42.790Z,15.27
